createdAt,value
2022-12-07T00:01:40.654Z,95435.28
2022-12-07T00:04:12.253Z,95422.66
2022-12-07T00:06:42.111Z,95372.66
2022-12-07T00:09:14.202Z,95407.78
2022-12-07T00:11:42.684Z,95388.53
2022-12-07T00:14:14.969Z,95379.03
2022-12-07T00:16:45.968Z,95401.97
2022-12-07T00:19:16.232Z,95401.53
2022-12-07T00:21:44.849Z,95387.88
2022-12-07T00:24:13.994Z,95233.75
2022-12-07T00:26:45.062Z,95384.03
2022-12-07T00:29:17.787Z,95391.44
2022-12-07T00:31:48.694Z,95334.47
2022-12-07T00:34:20.684Z,95355.41
2022-12-07T00:36:49.151Z,95385.38
2022-12-07T00:39:17.507Z,95341.91
2022-12-07T00:41:45.952Z,95348.41
2022-12-07T00:44:14.602Z,95367.03
2022-12-07T00:46:43.585Z,95374.75
2022-12-07T00:49:13.454Z,95358.00
2022-12-07T00:51:41.720Z,95352.69
2022-12-07T00:54:10.327Z,95354.91
2022-12-07T00:56:38.661Z,95346.94
2022-12-07T00:59:07.122Z,95343.72
2022-12-07T01:01:39.318Z,95356.41
2022-12-07T01:04:08.595Z,95325.59
2022-12-07T01:06:38.397Z,95348.31
2022-12-07T01:09:07.426Z,95349.56
2022-12-07T01:11:36.225Z,95323.19
2022-12-07T01:14:04.950Z,95336.38
2022-12-07T01:16:34.608Z,95297.06
2022-12-07T01:19:05.843Z,95300.59
2022-12-07T01:21:38.932Z,95332.63
2022-12-07T01:24:09.597Z,95335.97
2022-12-07T01:26:38.503Z,95317.22
2022-12-07T01:29:07.454Z,95314.56
2022-12-07T01:31:36.065Z,95323.34
2022-12-07T01:34:04.652Z,95309.06
2022-12-07T01:36:34.555Z,95324.97
2022-12-07T01:39:07.268Z,95330.28
2022-12-07T01:41:38.292Z,95328.31
2022-12-07T01:44:19.743Z,95324.63
2022-12-07T01:46:49.404Z,95323.66
2022-12-07T01:49:23.833Z,95324.97
2022-12-07T01:51:54.813Z,95320.84
2022-12-07T01:54:25.048Z,95319.88
2022-12-07T01:56:56.029Z,95322.25
2022-12-07T01:59:27.788Z,95300.28
2022-12-07T02:01:57.442Z,95321.81
2022-12-07T02:04:26.404Z,95276.13
2022-12-07T02:06:56.254Z,95306.00
2022-12-07T02:09:25.987Z,95273.28
2022-12-07T02:11:56.513Z,95290.16
2022-12-07T02:14:24.803Z,95295.50
2022-12-07T02:17:07.918Z,95291.59
2022-12-07T02:20:01.971Z,95296.13
2022-12-07T02:22:58.161Z,95285.94
2022-12-07T02:25:43.510Z,95294.72
2022-12-07T02:28:21.497Z,95275.84
2022-12-07T02:30:54.610Z,95280.78
2022-12-07T02:33:29.008Z,95272.34
2022-12-07T02:36:04.673Z,95271.44
2022-12-07T02:38:40.900Z,95289.09
2022-12-07T02:41:14.836Z,95254.38
2022-12-07T02:43:45.786Z,95270.47
2022-12-07T02:46:19.396Z,95289.91
2022-12-07T02:48:47.852Z,95277.63
2022-12-07T02:51:16.162Z,95283.75
2022-12-07T02:53:46.322Z,95282.25
2022-12-07T02:56:24.667Z,95284.44
2022-12-07T02:59:01.718Z,95267.94
2022-12-07T03:01:40.537Z,95274.28
2022-12-07T03:04:22.109Z,95275.34
2022-12-07T03:06:56.428Z,95265.28
2022-12-07T03:09:35.201Z,95221.91
2022-12-07T03:12:13.824Z,95276.81
2022-12-07T03:14:49.880Z,95281.66
2022-12-07T03:17:23.054Z,95223.38
2022-12-07T03:19:54.175Z,95199.50
2022-12-07T03:22:24.558Z,95249.84
2022-12-07T03:24:56.354Z,95262.97
2022-12-07T03:27:28.118Z,95258.50
2022-12-07T03:30:02.064Z,95259.53
2022-12-07T03:32:38.692Z,95257.56
2022-12-07T03:35:17.118Z,95250.66
2022-12-07T03:37:49.428Z,95240.16
2022-12-07T03:40:23.849Z,95248.69
2022-12-07T03:42:53.486Z,95234.00
2022-12-07T03:45:27.068Z,95255.06
2022-12-07T03:48:06.456Z,95226.19
2022-12-07T03:50:44.028Z,95202.13
2022-12-07T03:53:18.288Z,95258.28
2022-12-07T03:55:51.004Z,95222.94
2022-12-07T03:58:22.929Z,95257.38
2022-12-07T04:00:52.030Z,95253.69
2022-12-07T04:03:21.942Z,95234.50
2022-12-07T04:05:50.911Z,95235.81
2022-12-07T04:08:19.285Z,95237.44
2022-12-07T04:10:47.992Z,95252.56
2022-12-07T04:13:16.336Z,95244.00
2022-12-07T04:15:45.378Z,95248.97
2022-12-07T04:18:13.786Z,95248.75
2022-12-07T04:20:43.931Z,95253.00
2022-12-07T04:23:12.507Z,95244.81
2022-12-07T04:25:41.617Z,95241.94
2022-12-07T04:28:10.094Z,95238.25
2022-12-07T04:30:38.403Z,95234.53
2022-12-07T04:33:06.732Z,95230.03
2022-12-07T04:35:35.367Z,95229.09
2022-12-07T04:38:05.507Z,95227.84
2022-12-07T04:40:33.920Z,95231.41
2022-12-07T04:43:02.291Z,95207.50
2022-12-07T04:45:30.662Z,95229.22
2022-12-07T04:47:59.037Z,95238.13
2022-12-07T04:50:27.527Z,95225.63
2022-12-07T04:52:55.853Z,95224.03
2022-12-07T04:55:25.547Z,95226.91
2022-12-07T04:57:53.904Z,95227.50
2022-12-07T05:00:22.504Z,95233.50
2022-12-07T05:02:50.824Z,95241.25
2022-12-07T05:05:19.261Z,95224.84
2022-12-07T05:07:47.925Z,95226.44
2022-12-07T05:10:16.413Z,95234.41
2022-12-07T05:12:46.599Z,95228.06
2022-12-07T05:15:15.355Z,95227.84
2022-12-07T05:17:43.959Z,95231.53
2022-12-07T05:20:13.222Z,95227.25
2022-12-07T05:22:41.584Z,95181.72
2022-12-07T05:25:10.919Z,95219.53
2022-12-07T05:27:39.795Z,95222.19
2022-12-07T05:30:10.876Z,95223.22
2022-12-07T05:32:39.215Z,95220.31
2022-12-07T05:35:08.387Z,95230.72
2022-12-07T05:37:36.786Z,95138.53
2022-12-07T05:40:06.472Z,95224.16
2022-12-07T05:42:34.866Z,95213.72
2022-12-07T05:45:03.521Z,95228.53
2022-12-07T05:47:33.470Z,95238.34
2022-12-07T05:50:02.086Z,95178.41
2022-12-07T05:52:30.782Z,95229.94
2022-12-07T05:54:59.227Z,95230.75
2022-12-07T05:57:28.301Z,95222.41
2022-12-07T05:59:55.582Z,95230.84
2022-12-07T06:02:24.035Z,95235.94
2022-12-07T06:04:53.904Z,95220.09
2022-12-07T06:07:22.269Z,95222.75
2022-12-07T06:09:51.031Z,95222.31
2022-12-07T06:12:36.474Z,95211.56
2022-12-07T06:15:05.355Z,95236.63
2022-12-07T06:17:33.831Z,95236.28
2022-12-07T06:20:04.538Z,95240.66
2022-12-07T06:22:33.096Z,95230.84
2022-12-07T06:25:08.093Z,95217.56
2022-12-07T06:27:37.119Z,95213.28
2022-12-07T06:30:07.825Z,95243.78
2022-12-07T06:32:36.866Z,95220.94
2022-12-07T06:35:08.002Z,95245.06
2022-12-07T06:37:36.869Z,95254.56
2022-12-07T06:40:06.009Z,95262.28
2022-12-07T06:42:34.374Z,95265.41
2022-12-07T06:45:02.682Z,95265.75
2022-12-07T06:47:40.541Z,95261.47
2022-12-07T06:50:12.608Z,95257.31
2022-12-07T06:52:41.051Z,95261.81
2022-12-07T06:55:09.816Z,95259.28
2022-12-07T06:57:38.181Z,95247.50
2022-12-07T07:00:08.147Z,95268.19
2022-12-07T07:02:36.471Z,95261.13
2022-12-07T07:05:05.082Z,95275.34
2022-12-07T07:07:51.887Z,95280.06
2022-12-07T07:10:23.244Z,95268.66
2022-12-07T07:12:55.796Z,95267.84
2022-12-07T07:15:25.855Z,95219.09
2022-12-07T07:17:54.113Z,95198.16
2022-12-07T07:20:22.662Z,95261.00
2022-12-07T07:22:52.423Z,95253.94
2022-12-07T07:25:20.753Z,95262.06
2022-12-07T07:27:49.271Z,95239.75
2022-12-07T07:30:17.957Z,95262.63
2022-12-07T07:32:47.428Z,95265.28
2022-12-07T07:35:15.848Z,95261.47
2022-12-07T07:37:44.310Z,95241.59
2022-12-07T07:40:14.602Z,95274.28
2022-12-07T07:42:42.997Z,95276.50
2022-12-07T07:45:12.260Z,95287.94
2022-12-07T07:47:40.595Z,95282.06
2022-12-07T07:50:09.851Z,95282.88
2022-12-07T07:52:38.300Z,95258.94
2022-12-07T07:55:09.647Z,95254.75
2022-12-07T07:57:40.849Z,95275.47
2022-12-07T08:00:11.270Z,95274.75
2022-12-07T08:02:39.577Z,95251.66
2022-12-07T08:05:09.548Z,95278.13
2022-12-07T08:07:37.996Z,95278.56
2022-12-07T08:10:07.614Z,95276.72
2022-12-07T08:13:00.776Z,95278.69
2022-12-07T08:15:31.138Z,95278.47
2022-12-07T08:17:59.638Z,95269.44
2022-12-07T08:20:28.517Z,95264.84
2022-12-07T08:22:56.931Z,95282.16
2022-12-07T08:25:25.400Z,95283.34
2022-12-07T08:27:57.080Z,95283.22
2022-12-07T08:30:26.089Z,95274.19
2022-12-07T08:32:54.456Z,95277.56
2022-12-07T08:35:22.813Z,95256.84
2022-12-07T08:37:51.181Z,95279.16
2022-12-07T08:40:20.146Z,95291.31
2022-12-07T08:42:51.596Z,95260.31
2022-12-07T08:45:27.108Z,95289.78
2022-12-07T08:47:59.867Z,95289.56
2022-12-07T08:50:28.802Z,95286.94
2022-12-07T08:52:59.666Z,95271.75
2022-12-07T08:55:29.544Z,95280.09
2022-12-07T08:58:00.110Z,95281.50
2022-12-07T09:00:29.984Z,95257.66
2022-12-07T09:02:58.445Z,95293.16
2022-12-07T09:05:27.002Z,95292.81
2022-12-07T09:08:00.302Z,95287.44
2022-12-07T09:10:28.940Z,95286.91
2022-12-07T09:12:57.304Z,95213.97
2022-12-07T09:15:25.723Z,95292.31
2022-12-07T09:17:56.035Z,95290.84
2022-12-07T09:20:27.999Z,95290.28
2022-12-07T09:22:56.927Z,95238.94
2022-12-07T09:25:25.396Z,95280.31
2022-12-07T09:27:59.203Z,95294.41
2022-12-07T09:30:28.001Z,95290.75
2022-12-07T09:32:58.361Z,95258.94
2022-12-07T09:35:27.278Z,95292.13
2022-12-07T09:37:55.906Z,95285.38
2022-12-07T09:40:26.572Z,95282.06
2022-12-07T09:42:57.605Z,95288.66
2022-12-07T09:45:36.432Z,95288.03
2022-12-07T09:48:07.591Z,95287.47
2022-12-07T09:50:35.924Z,95287.28
2022-12-07T09:53:10.736Z,95289.91
2022-12-07T09:55:41.370Z,95264.38
2022-12-07T09:58:17.140Z,95282.28
2022-12-07T10:00:46.285Z,95282.63
2022-12-07T10:03:16.086Z,95277.19
2022-12-07T10:05:47.840Z,95279.94
2022-12-07T10:08:18.479Z,95274.28
2022-12-07T10:10:48.155Z,95283.50
2022-12-07T10:13:21.000Z,95246.47
2022-12-07T10:15:53.498Z,95225.97
2022-12-07T10:18:29.494Z,95255.47
2022-12-07T10:21:12.561Z,95269.75
2022-12-07T10:23:42.900Z,95265.25
2022-12-07T10:26:31.025Z,95267.69
2022-12-07T10:29:02.010Z,95250.00
2022-12-07T10:31:31.343Z,95235.47
2022-12-07T10:34:03.207Z,95237.28
2022-12-07T10:36:37.932Z,95256.66
2022-12-07T10:39:14.907Z,95252.75
2022-12-07T10:41:57.363Z,95237.06
2022-12-07T10:44:27.963Z,95242.78
2022-12-07T10:47:27.127Z,95251.34
2022-12-07T10:50:41.451Z,95260.56
2022-12-07T10:53:40.823Z,95257.13
2022-12-07T10:56:31.744Z,95261.22
2022-12-07T10:59:14.145Z,95247.94
2022-12-07T11:01:52.560Z,95260.66
2022-12-07T11:04:34.138Z,95252.53
2022-12-07T11:07:13.538Z,95258.03
2022-12-07T11:10:08.353Z,95255.16
2022-12-07T11:12:53.446Z,95237.31
2022-12-07T11:15:28.524Z,95241.03
2022-12-07T11:18:06.280Z,95248.06
2022-12-07T11:20:46.069Z,95238.97
2022-12-07T11:23:24.346Z,95241.16
2022-12-07T11:26:02.332Z,95249.13
2022-12-07T11:28:52.197Z,95246.34
2022-12-07T11:31:29.583Z,95248.34
2022-12-07T11:34:09.639Z,95256.66
2022-12-07T11:36:41.859Z,95215.78
2022-12-07T11:39:25.570Z,95223.00
2022-12-07T11:42:00.510Z,95249.69
2022-12-07T11:44:35.653Z,95241.16
2022-12-07T11:47:11.053Z,95230.88
2022-12-07T11:49:46.446Z,95238.75
2022-12-07T11:52:24.305Z,95228.41
2022-12-07T11:54:56.094Z,95231.84
2022-12-07T11:57:34.478Z,95225.19
2022-12-07T12:00:08.266Z,95222.13
2022-12-07T12:02:44.021Z,95210.94
2022-12-07T12:05:18.694Z,95223.44
2022-12-07T12:10:56.974Z,95219.72
2022-12-07T12:17:12.372Z,95213.69
2022-12-07T12:19:45.155Z,95194.88
2022-12-07T12:22:20.069Z,95191.63
2022-12-07T12:24:53.897Z,95205.94
2022-12-07T12:27:27.608Z,95208.19
2022-12-07T12:29:56.640Z,95205.81
2022-12-07T12:32:40.335Z,95162.50
2022-12-07T12:35:32.336Z,95203.50
2022-12-07T12:38:29.744Z,95162.56
2022-12-07T12:40:59.083Z,95194.50
2022-12-07T12:43:59.161Z,95193.22
2022-12-07T12:46:52.946Z,95198.97
2022-12-07T12:49:45.699Z,95195.81
2022-12-07T12:52:51.570Z,95194.50
2022-12-07T12:55:24.864Z,95197.53
2022-12-07T12:58:30.486Z,95182.22
2022-12-07T13:01:42.181Z,95180.50
2022-12-07T13:04:41.174Z,95193.63
2022-12-07T13:07:15.965Z,95202.44
2022-12-07T13:09:47.447Z,95197.41
2022-12-07T13:12:18.555Z,95191.44
2022-12-07T13:15:30.491Z,95193.16
2022-12-07T13:18:07.125Z,95186.56
2022-12-07T13:20:50.735Z,95173.13
2022-12-07T13:23:28.338Z,95139.75
2022-12-07T13:26:17.053Z,95172.16
2022-12-07T13:28:48.040Z,95171.50
2022-12-07T13:31:23.446Z,95170.44
2022-12-07T13:33:53.288Z,95165.00
2022-12-07T13:36:25.857Z,95180.03
2022-12-07T13:38:57.348Z,95176.25
2022-12-07T13:41:26.995Z,95150.50
2022-12-07T13:44:03.899Z,95176.25
2022-12-07T13:46:52.775Z,95176.03
2022-12-07T13:49:25.172Z,95165.72
2022-12-07T13:51:54.305Z,95167.59
2022-12-07T13:54:23.643Z,95135.41
2022-12-07T13:56:54.539Z,95139.00
2022-12-07T13:59:25.504Z,95143.38
2022-12-07T14:01:55.196Z,95169.09
2022-12-07T14:04:42.639Z,95168.19
2022-12-07T14:07:26.176Z,95164.34
2022-12-07T14:09:59.944Z,95169.81
2022-12-07T14:12:29.015Z,95175.13
2022-12-07T14:15:00.038Z,95173.25
2022-12-07T14:17:29.786Z,95141.84
2022-12-07T14:20:01.226Z,95159.16
2022-12-07T14:22:36.155Z,95160.91
2022-12-07T14:25:20.015Z,95163.81
2022-12-07T14:28:00.104Z,95149.38
2022-12-07T14:30:30.811Z,95160.91
2022-12-07T14:33:01.888Z,95155.84
2022-12-07T14:35:33.643Z,95162.41
2022-12-07T14:38:02.121Z,95151.22
2022-12-07T14:40:32.587Z,95131.59
2022-12-07T14:43:04.220Z,95145.81
2022-12-07T14:45:32.949Z,95126.88
2022-12-07T14:53:53.151Z,95134.53
2022-12-07T14:56:25.358Z,95129.53
2022-12-07T14:58:54.115Z,95138.31
2022-12-07T15:01:22.445Z,95094.81
2022-12-07T15:03:51.638Z,95145.59
2022-12-07T15:06:21.676Z,95125.03
2022-12-07T15:08:51.290Z,95142.03
2022-12-07T15:11:20.707Z,95144.69
2022-12-07T15:14:07.361Z,95146.72
2022-12-07T15:17:06.898Z,95118.34
2022-12-07T15:19:29.876Z,95153.88
2022-12-07T15:22:01.068Z,95143.06
2022-12-07T15:24:29.544Z,95142.13
2022-12-07T15:26:57.944Z,95145.63
2022-12-07T15:29:26.335Z,95128.72
2022-12-07T15:31:57.815Z,95136.72
2022-12-07T15:34:31.887Z,95132.19
2022-12-07T15:37:06.183Z,95129.88
2022-12-07T15:39:34.552Z,95125.38
2022-12-07T15:42:03.409Z,95133.56
2022-12-07T15:44:49.021Z,95134.22
2022-12-07T15:47:17.517Z,95105.63
2022-12-07T15:49:46.142Z,95125.47
2022-12-07T15:52:17.037Z,95128.72
2022-12-07T15:54:45.874Z,95114.75
2022-12-07T15:57:14.198Z,95128.81
2022-12-07T15:59:42.843Z,95123.59
2022-12-07T16:02:12.502Z,95132.28
2022-12-07T16:04:40.945Z,95127.28
2022-12-07T16:07:09.374Z,95127.16
2022-12-07T16:09:39.129Z,95129.84
2022-12-07T16:12:08.146Z,95073.88
2022-12-07T16:14:36.728Z,95125.94
2022-12-07T16:17:05.608Z,95143.94
2022-12-07T16:19:34.487Z,95142.56
2022-12-07T16:22:02.897Z,95146.16
2022-12-07T16:24:31.305Z,95146.16
2022-12-07T16:27:01.086Z,95139.81
2022-12-07T16:29:29.760Z,95142.69
2022-12-07T16:31:58.452Z,95147.38
2022-12-07T16:34:26.921Z,95138.63
2022-12-07T16:37:03.758Z,95150.88
2022-12-07T16:39:33.424Z,95136.53
2022-12-07T16:42:03.647Z,95142.31
2022-12-07T16:44:32.895Z,95144.75
2022-12-07T16:47:02.224Z,95140.59
2022-12-07T16:49:30.796Z,95071.53
2022-12-07T16:52:18.686Z,95146.69
2022-12-07T16:54:48.107Z,95134.94
2022-12-07T16:57:23.004Z,95140.34
2022-12-07T16:59:52.766Z,95140.00
2022-12-07T17:02:21.503Z,95137.00
2022-12-07T17:04:49.922Z,95139.09
2022-12-07T17:07:18.233Z,95103.56
2022-12-07T17:09:46.605Z,95136.22
2022-12-07T17:12:14.896Z,95143.94
2022-12-07T17:15:02.713Z,95121.03
2022-12-07T17:17:32.026Z,95137.13
2022-12-07T17:20:00.289Z,95101.00
2022-12-07T17:22:28.742Z,95133.66
2022-12-07T17:24:57.115Z,95130.19
2022-12-07T17:27:25.479Z,95137.75
2022-12-07T17:29:55.526Z,95125.41
2022-12-07T17:32:23.953Z,95125.88
2022-12-07T17:34:52.452Z,95127.63
2022-12-07T17:37:20.703Z,95131.38
2022-12-07T17:39:49.176Z,95129.47
2022-12-07T17:42:34.362Z,95127.78
2022-12-07T17:45:05.555Z,95117.69
2022-12-07T17:47:34.121Z,95115.84
2022-12-07T17:50:07.011Z,95120.88
2022-12-07T17:52:54.086Z,95103.63
2022-12-07T17:55:22.459Z,95122.88
2022-12-07T17:57:51.932Z,95104.63
2022-12-07T18:00:22.394Z,95121.25
2022-12-07T18:02:50.762Z,95136.31
2022-12-07T18:05:19.675Z,95124.50
2022-12-07T18:07:48.083Z,95126.69
2022-12-07T18:10:16.739Z,95126.81
2022-12-07T18:12:50.301Z,95122.66
2022-12-07T18:15:21.874Z,95117.03
2022-12-07T18:17:52.097Z,95119.69
2022-12-07T18:20:20.848Z,95114.38
2022-12-07T18:22:49.275Z,95108.63
2022-12-07T18:25:17.717Z,95077.13
2022-12-07T18:27:49.074Z,95098.25
2022-12-07T18:30:18.566Z,95102.50
2022-12-07T18:32:48.366Z,95101.81
2022-12-07T18:35:17.052Z,95109.66
2022-12-07T18:37:45.328Z,95103.88
2022-12-07T18:40:14.806Z,95116.47
2022-12-07T18:42:43.148Z,95105.84
2022-12-07T18:45:12.347Z,95111.16
2022-12-07T18:47:40.648Z,95107.47
2022-12-07T18:50:12.749Z,95099.50
2022-12-07T18:52:42.364Z,95100.53
2022-12-07T18:55:10.994Z,95099.72
2022-12-07T18:57:39.459Z,95096.84
2022-12-07T19:00:09.436Z,95097.31
2022-12-07T19:02:38.630Z,95098.81
2022-12-07T19:05:07.939Z,95103.56
2022-12-07T19:07:37.984Z,95096.72
2022-12-07T19:10:09.078Z,95095.69
2022-12-07T19:12:37.994Z,95095.22
2022-12-07T19:15:07.616Z,95100.06
2022-12-07T19:17:37.355Z,95093.00
2022-12-07T19:20:08.206Z,95091.72
2022-12-07T19:22:38.245Z,95093.34
2022-12-07T19:25:07.549Z,95092.28
2022-12-07T19:27:36.012Z,95088.59
2022-12-07T19:30:04.465Z,95089.16
2022-12-07T19:32:32.919Z,95033.78
2022-12-07T19:35:02.210Z,95086.59
2022-12-07T19:37:31.020Z,95018.91
2022-12-07T19:40:01.132Z,95079.09
2022-12-07T19:42:35.304Z,95076.28
2022-12-07T19:45:04.807Z,95074.81
2022-12-07T19:47:33.631Z,95051.53
2022-12-07T19:50:02.105Z,95078.97
2022-12-07T19:52:36.336Z,95077.59
2022-12-07T19:55:08.306Z,95089.78
2022-12-07T19:57:36.615Z,95064.94
2022-12-07T20:00:06.521Z,95035.28
2022-12-07T20:02:35.793Z,95073.09
2022-12-07T20:05:09.500Z,95078.66
2022-12-07T20:07:39.876Z,95060.66
2022-12-07T20:10:12.863Z,95061.09
2022-12-07T20:13:00.086Z,95064.00
2022-12-07T20:15:29.958Z,95033.31
2022-12-07T20:17:59.654Z,95056.25
2022-12-07T20:20:29.263Z,95062.38
2022-12-07T20:22:59.733Z,95044.16
2022-12-07T20:25:33.832Z,95052.88
2022-12-07T20:28:04.875Z,95062.94
2022-12-07T20:30:34.706Z,95053.84
2022-12-07T20:33:04.725Z,95048.06
2022-12-07T20:35:34.326Z,95049.22
2022-12-07T20:38:12.211Z,95043.34
2022-12-07T20:40:49.871Z,95019.47
2022-12-07T20:43:19.660Z,95037.69
2022-12-07T20:45:50.162Z,95036.41
2022-12-07T20:48:20.227Z,95039.63
2022-12-07T20:50:49.980Z,95019.81
2022-12-07T20:53:19.733Z,95035.94
2022-12-07T20:55:51.385Z,95032.00
2022-12-07T20:58:19.782Z,95062.84
2022-12-07T21:00:49.247Z,95039.50
2022-12-07T21:03:19.344Z,95036.03
2022-12-07T21:05:50.887Z,95032.59
2022-12-07T21:08:21.237Z,95040.56
2022-12-07T21:10:51.840Z,95029.53
2022-12-07T21:13:21.908Z,95024.84
2022-12-07T21:15:52.197Z,95024.50
2022-12-07T21:18:22.279Z,95017.13
2022-12-07T21:20:52.115Z,95008.06
2022-12-07T21:23:22.304Z,94987.59
2022-12-07T21:25:53.576Z,95025.75
2022-12-07T21:28:23.331Z,94999.47
2022-12-07T21:31:12.677Z,95020.19
2022-12-07T21:33:44.508Z,95017.28
2022-12-07T21:36:15.303Z,95011.88
2022-12-07T21:38:45.406Z,95015.19
2022-12-07T21:41:19.596Z,95011.03
2022-12-07T21:43:49.852Z,95006.66
2022-12-07T21:46:20.425Z,95014.25
2022-12-07T21:48:53.688Z,94980.38
2022-12-07T21:51:23.712Z,95018.09
2022-12-07T21:53:54.531Z,95016.47
2022-12-07T21:56:25.928Z,95004.34
2022-12-07T21:58:55.849Z,95010.22
2022-12-07T22:01:26.537Z,95006.53
2022-12-07T22:03:55.783Z,95005.78
2022-12-07T22:06:26.063Z,94988.91
2022-12-07T22:08:56.088Z,94997.34
2022-12-07T22:11:25.857Z,94992.50
2022-12-07T22:14:11.403Z,95011.13
2022-12-07T22:16:40.230Z,95007.56
2022-12-07T22:19:09.627Z,94992.50
2022-12-07T22:21:41.299Z,94994.38
2022-12-07T22:24:11.847Z,94991.53
2022-12-07T22:26:42.309Z,94989.91
2022-12-07T22:29:11.214Z,94997.56
2022-12-07T22:31:41.249Z,94986.22
2022-12-07T22:34:16.231Z,94977.91
2022-12-07T22:36:45.181Z,94975.72
2022-12-07T22:39:13.861Z,94982.78
2022-12-07T22:41:44.300Z,94976.19
2022-12-07T22:44:12.729Z,94979.09
2022-12-07T22:46:41.845Z,94976.44
2022-12-07T22:49:10.179Z,94975.06
2022-12-07T22:51:40.420Z,94950.41
2022-12-07T22:54:12.329Z,94968.69
2022-12-07T22:56:40.605Z,94974.91
2022-12-07T22:59:10.421Z,94966.03
2022-12-07T23:01:38.869Z,94957.72
2022-12-07T23:04:07.460Z,94958.41
2022-12-07T23:06:37.135Z,94955.41
2022-12-07T23:09:08.609Z,94948.63
2022-12-07T23:11:57.648Z,94951.50
2022-12-07T23:14:30.207Z,94951.50
2022-12-07T23:16:58.804Z,94948.38
2022-12-07T23:19:28.233Z,94939.94
2022-12-07T23:21:56.654Z,94939.47
2022-12-07T23:24:25.684Z,94935.91
2022-12-07T23:26:54.124Z,94899.63
2022-12-07T23:29:22.818Z,94901.63
2022-12-07T23:31:52.808Z,94925.66
2022-12-07T23:34:21.279Z,94907.69
2022-12-07T23:36:49.608Z,94927.09
2022-12-07T23:39:18.003Z,94872.97
2022-12-07T23:41:46.353Z,94929.28
2022-12-07T23:44:15.543Z,94924.94
2022-12-07T23:46:43.911Z,94932.28
2022-12-07T23:49:14.165Z,94900.09
2022-12-07T23:51:42.770Z,94903.06
2022-12-07T23:54:12.663Z,94911.25
2022-12-07T23:56:41.260Z,94909.97
2022-12-07T23:59:12.238Z,94890.38
